Time;durP1;ratioP1;P1;durP2;ratioP2;P2;SDS_P1;SDS_P2;PMS_P1;PMS_P2;Temp;Humidity;BMP_temperature;BMP_pressure;BME280_temperature;BME280_humidity;BME280_pressure;Samples;Min_cycle;Max_cycle;Signal;HPM_P1;HPM_P2
2022/09/25 00:08:28;;;;;;;1.50;0.50;;;18.30;47.50;;;;;;20752709;28;20132;-55
2022/09/25 00:28:52;;;;;;;0.98;0.60;;;18.10;47.40;;;;;;20748611;28;20064;-54
2022/09/25 00:38:54;;;;;;;1.02;0.63;;;17.90;47.70;;;;;;20749014;28;20050;-53
2022/09/25 00:49:25;;;;;;;0.85;0.50;;;17.70;48.00;;;;;;20747884;28;20081;-54
2022/09/25 00:59:32;;;;;;;1.02;0.50;;;17.90;47.50;;;;;;20418641;28;20476;-53
2022/09/25 01:09:34;;;;;;;1.25;0.50;;;17.70;48.00;;;;;;20418270;28;20064;-53
2022/09/25 01:20:00;;;;;;;1.50;0.40;;;17.60;48.10;;;;;;20418457;29;20392;-53
2022/09/25 01:30:11;;;;;;;1.23;0.70;;;17.50;48.10;;;;;;20514499;28;20061;-53
2022/09/25 01:40:32;;;;;;;0.65;0.50;;;17.40;48.40;;;;;;20730660;28;20058;-54
2022/09/25 01:50:45;;;;;;;1.38;0.50;;;17.30;48.60;;;;;;20761473;28;20058;-53
2022/09/25 02:00:53;;;;;;;;;;;17.30;48.50;;;;;;20761354;28;20548;-54
2022/09/25 02:11:03;;;;;;;0.57;0.43;;;17.30;47.90;;;;;;20759155;28;19960;-54
2022/09/25 02:21:37;;;;;;;0.73;0.50;;;17.20;48.10;;;;;;20758100;28;20058;-54
2022/09/25 02:32:01;;;;;;;1.85;0.60;;;17.10;48.00;;;;;;20757968;28;20113;-54
2022/09/25 02:42:21;;;;;;;1.02;0.50;;;17.00;48.20;;;;;;20756620;28;20050;-54
2022/09/25 02:52:49;;;;;;;0.73;0.50;;;16.80;48.60;;;;;;20756573;28;20100;-55
2022/09/25 03:02:58;;;;;;;0.40;0.40;;;16.80;47.90;;;;;;20755483;28;20050;-55
2022/09/25 03:13:15;;;;;;;0.88;0.50;;;16.70;48.20;;;;;;20754351;28;20136;-54
2022/09/25 03:23:21;;;;;;;0.30;0.30;;;16.50;49.00;;;;;;20753817;28;20054;-54
2022/09/25 03:33:28;;;;;;;0.30;0.30;;;16.30;49.30;;;;;;20753104;28;20054;-55
2022/09/25 03:43:32;;;;;;;0.90;0.40;;;16.30;49.50;;;;;;20751937;28;20053;-55
2022/09/25 03:53:35;;;;;;;0.75;0.52;;;16.00;50.10;;;;;;20751464;28;20395;-54
2022/09/25 04:03:38;;;;;;;0.95;0.70;;;15.90;50.30;;;;;;20750567;28;20054;-56
2022/09/25 04:13:40;;;;;;;1.98;0.50;;;15.90;50.20;;;;;;20750950;28;20124;-55
2022/09/25 04:24:47;;;;;;;0.70;0.50;;;15.90;49.80;;;;;;20751000;28;20053;-53
2022/09/25 04:34:05;;;;;;;0.57;0.40;;;15.80;50.30;;;;;;20748737;28;20054;-53
2022/09/25 04:44:06;;;;;;;1.27;0.50;;;16.00;49.10;;;;;;20748144;28;20093;-54
2022/09/25 04:54:08;;;;;;;0.90;0.60;;;15.70;49.90;;;;;;20747938;28;20117;-54
2022/09/25 05:04:10;;;;;;;0.70;0.50;;;15.70;50.00;;;;;;20747568;28;20053;-55
2022/09/25 05:14:12;;;;;;;2.40;0.60;;;15.70;49.70;;;;;;20749025;28;20536;-55
2022/09/25 05:24:16;;;;;;;1.58;0.70;;;15.60;50.10;;;;;;20762967;28;20092;-53
2022/09/25 05:34:18;;;;;;;2.45;0.70;;;15.70;49.00;;;;;;20762291;28;20050;-53
2022/09/25 05:44:20;;;;;;;1.13;0.50;;;15.70;48.30;;;;;;20762431;28;20112;-55
2022/09/25 05:54:22;;;;;;;1.10;0.60;;;15.60;48.10;;;;;;20761483;28;20048;-54
2022/09/25 06:04:24;;;;;;;1.92;0.80;;;15.40;47.40;;;;;;20760701;28;20147;-54
2022/09/25 06:14:26;;;;;;;1.77;0.70;;;15.40;47.40;;;;;;20759945;28;20461;-55
2022/09/25 06:24:27;;;;;;;1.63;0.70;;;15.50;46.80;;;;;;20760547;28;20046;-55
2022/09/25 06:34:29;;;;;;;2.63;0.68;;;15.50;46.60;;;;;;20757192;28;20403;-57
2022/09/25 06:44:32;;;;;;;2.25;0.80;;;15.30;47.10;;;;;;20757074;28;20053;-57
2022/09/25 06:54:34;;;;;;;1.58;0.50;;;15.20;47.20;;;;;;20757160;28;20410;-55
2022/09/25 07:04:36;;;;;;;3.50;0.85;;;15.20;47.20;;;;;;20754513;28;20100;-56
2022/09/25 07:14:38;;;;;;;3.15;0.93;;;15.20;46.90;;;;;;20755323;28;20045;-55
2022/09/25 07:24:40;;;;;;;2.40;0.93;;;15.30;46.90;;;;;;20754850;28;20050;-56
2022/09/25 07:34:42;;;;;;;2.13;0.70;;;15.20;47.20;;;;;;20753135;28;20046;-57
2022/09/25 07:44:44;;;;;;;2.20;0.80;;;15.50;46.30;;;;;;20753796;28;20324;-58
2022/09/25 07:54:45;;;;;;;2.72;0.65;;;15.40;46.40;;;;;;20752173;28;20049;-56
2022/09/25 08:04:47;;;;;;;4.50;1.05;;;15.60;45.90;;;;;;20750973;28;20061;-55
2022/09/25 08:14:49;;;;;;;2.13;0.60;;;15.60;46.00;;;;;;20751107;28;20140;-54
2022/09/25 08:24:51;;;;;;;2.22;0.70;;;15.90;46.30;;;;;;20749316;28;20122;-54
2022/09/25 08:34:54;;;;;;;2.72;0.75;;;16.10;46.10;;;;;;20749363;28;20502;-54
2022/09/25 08:56:13;;;;;;;1.77;0.70;;;16.50;45.50;;;;;;20748019;28;20542;-54
2022/09/25 09:05:59;;;;;;;3.55;1.20;;;16.80;45.10;;;;;;20747972;28;20169;-52
2022/09/25 09:16:05;;;;;;;1.77;0.93;;;17.20;44.30;;;;;;20746358;28;20108;-54
2022/09/25 09:26:16;;;;;;;2.13;0.70;;;17.40;43.70;;;;;;20747746;28;20053;-55
2022/09/25 09:36:33;;;;;;;1.52;0.73;;;17.60;42.20;;;;;;20746415;28;20065;-54
2022/09/25 09:47:05;;;;;;;1.10;0.50;;;17.70;41.50;;;;;;20745636;28;20060;-54
2022/09/25 09:57:47;;;;;;;2.00;1.05;;;18.00;38.00;;;;;;20744917;28;20050;-53
2022/09/25 10:07:50;;;;;;;1.70;0.60;;;17.90;39.10;;;;;;20753428;28;20050;-54
2022/09/25 10:17:54;;;;;;;5.28;0.70;;;18.20;37.60;;;;;;20759528;28;20049;-54
2022/09/25 10:27:56;;;;;;;2.85;0.70;;;18.20;38.50;;;;;;20757500;28;20058;-53
2022/09/25 10:38:00;;;;;;;0.90;0.55;;;18.30;38.50;;;;;;20757326;28;20180;-52
2022/09/25 10:58:58;;;;;;;2.25;0.70;;;19.30;36.40;;;;;;20756201;28;20065;-52
2022/09/25 11:09:12;;;;;;;1.10;0.70;;;19.40;36.50;;;;;;20753609;28;20413;-55
2022/09/25 11:19:24;;;;;;;1.17;0.68;;;19.50;36.20;;;;;;20754727;28;20049;-52
2022/09/25 11:30:03;;;;;;;2.95;1.27;;;19.60;36.00;;;;;;20753739;28;20096;-54
2022/09/25 11:51:17;;;;;;;1.90;1.10;;;19.70;35.30;;;;;;20752226;28;20041;-53
2022/09/25 12:01:43;;;;;;;1.30;0.60;;;19.70;35.30;;;;;;20751448;28;20112;-54
2022/09/25 12:11:47;;;;;;;1.90;0.63;;;20.10;33.80;;;;;;20751986;28;20049;-54
2022/09/25 12:22:16;;;;;;;1.38;0.60;;;20.10;33.70;;;;;;20751081;28;20474;-53
2022/09/25 12:32:31;;;;;;;1.23;0.85;;;20.20;33.10;;;;;;20419576;29;20048;-55
2022/09/25 12:43:00;;;;;;;1.15;0.70;;;20.60;32.60;;;;;;20419755;28;20058;-53
2022/09/25 12:53:12;;;;;;;4.88;0.80;;;21.20;32.20;;;;;;20419124;29;20067;-53
2022/09/25 13:03:27;;;;;;;2.90;0.95;;;21.30;30.10;;;;;;20508477;28;20058;-54
2022/09/25 13:13:35;;;;;;;1.00;0.60;;;21.30;30.10;;;;;;20746808;28;20056;-53
2022/09/25 13:23:40;;;;;;;1.15;0.60;;;21.20;29.80;;;;;;20747525;28;20096;-55
2022/09/25 13:33:44;;;;;;;5.32;1.00;;;21.30;29.30;;;;;;20746683;28;20054;-54
2022/09/25 13:43:47;;;;;;;3.05;0.85;;;21.50;29.30;;;;;;20759930;28;20581;-55
2022/09/25 13:54:03;;;;;;;2.20;0.77;;;21.70;29.10;;;;;;20761369;28;20137;-55
2022/09/25 14:04:13;;;;;;;1.48;0.80;;;21.70;29.00;;;;;;20759945;28;20085;-55
2022/09/25 14:14:28;;;;;;;1.65;0.63;;;22.00;28.90;;;;;;20759335;28;20050;-56
2022/09/25 14:24:30;;;;;;;2.30;1.00;;;21.90;29.20;;;;;;20758641;28;20053;-54
2022/09/25 14:34:41;;;;;;;;;;;22.10;29.10;;;;;;20757514;28;20058;-55
2022/09/25 14:45:13;;;;;;;3.17;0.80;;;22.10;29.10;;;;;;20756633;28;19929;-54
2022/09/25 14:55:19;;;;;;;1.95;0.73;;;22.10;28.90;;;;;;20755238;28;20054;-56
2022/09/25 15:05:34;;;;;;;2.17;1.00;;;22.00;28.80;;;;;;20755392;28;20498;-55
2022/09/25 15:15:37;;;;;;;2.65;1.35;;;22.00;28.30;;;;;;20754573;28;20045;-55
2022/09/25 15:25:46;;;;;;;2.03;0.73;;;22.10;28.10;;;;;;20752313;28;20133;-54
2022/09/25 15:35:59;;;;;;;1.98;1.00;;;22.10;28.20;;;;;;20751408;28;20085;-53
2022/09/25 15:46:27;;;;;;;1.80;0.50;;;22.10;28.20;;;;;;20751662;28;20073;-55
2022/09/25 15:56:37;;;;;;;3.17;2.05;;;22.20;27.50;;;;;;20742861;28;20471;-54
2022/09/25 16:06:41;;;;;;;2.35;1.10;;;22.20;27.60;;;;;;20751705;28;20344;-54
2022/09/25 16:16:48;;;;;;;3.22;0.70;;;22.20;27.10;;;;;;20749679;28;20053;-54
2022/09/25 16:27:01;;;;;;;1.50;0.90;;;22.10;26.60;;;;;;20749677;28;20054;-55
2022/09/25 16:37:05;;;;;;;1.70;0.73;;;22.10;26.80;;;;;;20749232;28;20058;-54
2022/09/25 16:47:15;;;;;;;1.67;0.82;;;22.00;26.90;;;;;;20748424;28;20390;-54
2022/09/25 16:57:17;;;;;;;0.95;0.68;;;22.00;27.20;;;;;;20748829;28;20098;-55
2022/09/25 17:07:19;;;;;;;1.75;1.10;;;22.00;27.30;;;;;;20746106;28;20057;-55
2022/09/25 17:17:21;;;;;;;2.10;0.98;;;22.00;27.30;;;;;;20759236;28;20104;-56
2022/09/25 17:27:23;;;;;;;2.45;1.00;;;21.90;27.50;;;;;;20764399;28;20065;-54
2022/09/25 17:37:25;;;;;;;1.67;1.00;;;21.80;27.60;;;;;;20761984;28;20564;-57
2022/09/25 17:47:29;;;;;;;1.90;1.00;;;21.80;28.00;;;;;;20761799;28;20049;-54
2022/09/25 17:57:31;;;;;;;2.40;0.90;;;21.60;28.40;;;;;;20761097;28;20108;-56
2022/09/25 18:07:32;;;;;;;3.58;1.17;;;21.70;28.10;;;;;;20760198;28;20057;-56
2022/09/25 18:17:34;;;;;;;3.10;0.98;;;21.70;28.20;;;;;;20760467;28;20528;-54
2022/09/25 18:27:40;;;;;;;2.72;1.63;;;21.50;28.60;;;;;;20757861;28;20046;-54
2022/09/25 18:37:42;;;;;;;1.60;0.88;;;21.40;28.50;;;;;;20758142;28;20045;-54
2022/09/25 18:47:45;;;;;;;3.97;1.00;;;21.20;29.20;;;;;;20757931;28;20050;-55
2022/09/25 18:57:46;;;;;;;1.05;0.70;;;20.90;29.70;;;;;;20756507;28;20137;-54
2022/09/25 19:07:48;;;;;;;1.40;0.82;;;20.80;30.10;;;;;;20756275;28;20123;-55
2022/09/25 19:17:49;;;;;;;2.83;0.80;;;20.80;30.70;;;;;;20755878;28;20046;-53
2022/09/25 19:27:51;;;;;;;1.08;0.75;;;20.70;32.00;;;;;;20754650;28;20181;-56
2022/09/25 19:37:52;;;;;;;2.95;0.80;;;20.50;32.10;;;;;;20753300;28;20095;-56
2022/09/25 19:48:00;;;;;;;1.30;0.60;;;20.40;32.50;;;;;;20753706;28;20058;-58
2022/09/25 19:58:03;;;;;;;2.97;0.75;;;20.40;32.60;;;;;;20719790;28;20457;-54
2022/09/25 20:08:05;;;;;;;1.92;0.98;;;20.20;33.40;;;;;;20750536;28;20057;-55
2022/09/25 20:18:07;;;;;;;2.25;0.70;;;20.10;34.30;;;;;;20750510;28;20562;-55
2022/09/25 20:28:11;;;;;;;1.45;0.65;;;19.80;35.20;;;;;;20750247;28;20136;-58
2022/09/25 20:38:13;;;;;;;1.20;0.55;;;19.70;35.60;;;;;;20749310;28;20053;-56
2022/09/25 20:48:16;;;;;;;2.20;0.70;;;19.50;35.90;;;;;;20748148;28;20116;-55
2022/09/25 20:58:18;;;;;;;3.25;1.00;;;19.30;36.20;;;;;;20747503;28;20049;-54
2022/09/25 21:08:19;;;;;;;1.42;0.77;;;19.20;36.40;;;;;;20747070;28;20140;-56
2022/09/25 21:18:21;;;;;;;1.17;0.60;;;19.10;36.50;;;;;;20747528;28;20042;-54
2022/09/25 21:28:23;;;;;;;2.83;0.73;;;18.80;36.80;;;;;;20748186;28;20050;-54
2022/09/25 21:38:24;;;;;;;4.57;0.80;;;18.70;37.10;;;;;;20745853;28;20088;-55
2022/09/25 21:48:27;;;;;;;2.45;0.70;;;18.60;37.50;;;;;;20746739;28;20418;-56
2022/09/25 21:58:29;;;;;;;2.63;0.60;;;18.50;37.90;;;;;;20749864;28;20177;-55
2022/09/25 22:08:30;;;;;;;2.17;0.70;;;18.60;38.00;;;;;;20761075;28;20053;-56
2022/09/25 22:18:45;;;;;;;2.17;0.73;;;18.40;38.40;;;;;;20759692;28;20054;-54
2022/09/25 22:28:48;;;;;;;0.98;0.70;;;18.40;38.70;;;;;;20758321;28;20097;-54
2022/09/25 22:38:50;;;;;;;2.55;1.05;;;18.20;39.30;;;;;;20759304;28;20189;-54
2022/09/25 22:48:52;;;;;;;2.17;1.00;;;18.10;39.60;;;;;;20757747;28;20057;-54
2022/09/25 22:58:58;;;;;;;2.67;0.80;;;18.00;39.90;;;;;;20756235;28;20054;-54
2022/09/25 23:09:04;;;;;;;1.92;1.08;;;17.90;39.90;;;;;;20755517;28;20049;-56
2022/09/25 23:19:05;;;;;;;2.15;0.80;;;17.70;40.60;;;;;;20754559;28;20052;-53
2022/09/25 23:29:07;;;;;;;2.30;0.88;;;17.70;40.60;;;;;;20753674;28;20066;-55
2022/09/25 23:39:14;;;;;;;1.85;0.80;;;17.70;41.00;;;;;;20753606;28;20065;-53
2022/09/25 23:49:16;;;;;;;1.77;0.80;;;17.50;41.50;;;;;;20753074;28;20480;-53
2022/09/25 23:59:17;;;;;;;2.17;0.90;;;17.30;41.80;;;;;;20753186;28;20075;-56
